Dades meteomassalio
Diari Summary for Marc 5, 2017 Units:  Metric    English   Both
« Previous Day
Next Day »
Diari Semanal Mensual Anual Personalitzat
  Maxima: Minima: Mijana:
Temperatura: 16.0 °C 4.1 °C 10.1 °C
Rosada: 9.8 °C 0.9 °C 5.8 °C
Humitat: 88 % 60 % 75 %
Velocitat del vent: 37.0 km/h 0.0 km/h 6.9 km/h
Racha vent: 37.0 km/h - -
Vent:- - WNW
Pressio: 1020.9 hPa 1013.8 hPa -
Pluja: 0.0 mm    
Historical Graphs
 
 
Tabular Data for Marc 5, 2017
Time Temperature Dew Point Pressure Wind Wind Speed Wind Gust Humidity Rainfall Rate (Hourly) solar Conditions
00:04 4.8 °C 1.1 °C 1013.8 hPa Calm     77 % 0.0 mm 0.0 W/m2 RA
00:09 4.9 °C 1.0 °C 1013.8 hPa Calm     76 % 0.0 mm 0.0 W/m2 CLR
00:14 4.8 °C 0.9 °C 1014.1 hPa Calm     76 % 0.0 mm 0.0 W/m2 CLR
00:19 4.8 °C 0.9 °C 1014.1 hPa Calm     76 % 0.0 mm 0.0 W/m2 CLR
00:24 4.8 °C 1.3 °C 1014.1 hPa Calm     78 % 0.0 mm 0.0 W/m2 CLR
00:29 4.6 °C 1.1 °C 1013.8 hPa Calm     78 % 0.0 mm 0.0 W/m2 CLR
00:34 4.4 °C 0.9 °C 1014.1 hPa Calm     78 % 0.0 mm 0.0 W/m2 CLR
00:39 4.4 °C 0.9 °C 1014.1 hPa Calm     78 % 0.0 mm 0.0 W/m2 CLR
00:44 4.4 °C 1.1 °C 1014.1 hPa Calm     79 % 0.0 mm 0.0 W/m2 CLR
00:49 4.3 °C 1.0 °C 1013.8 hPa Calm     79 % 0.0 mm 0.0 W/m2 CLR
00:54 4.3 °C 1.1 °C 1013.8 hPa Calm     80 % 0.0 mm 0.0 W/m2 CLR
00:59 4.3 °C 1.3 °C 1013.8 hPa Calm     81 % 0.0 mm 0.0 W/m2 CLR
01:04 4.2 °C 1.2 °C 1014.1 hPa Calm     81 % 0.0 mm 0.0 W/m2 CLR
01:09 4.2 °C 1.2 °C 1014.1 hPa Calm     81 % 0.0 mm 0.0 W/m2 CLR
01:14 4.3 °C 1.5 °C 1013.8 hPa Calm     82 % 0.0 mm 0.0 W/m2 CLR
01:19 4.2 °C 1.4 °C 1014.1 hPa Calm     82 % 0.0 mm 0.0 W/m2 CLR
01:24 4.3 °C 1.3 °C 1014.1 hPa Calm     81 % 0.0 mm 0.0 W/m2 CLR
01:29 4.3 °C 1.2 °C 1014.1 hPa Calm     80 % 0.0 mm 0.0 W/m2 CLR
01:34 4.3 °C 1.3 °C 1014.4 hPa Calm     81 % 0.0 mm 0.0 W/m2 CLR
01:39 4.3 °C 1.6 °C 1014.8 hPa Calm     82 % 0.0 mm 0.0 W/m2 CLR
01:44 4.3 °C 1.5 °C 1014.8 hPa Calm     82 % 0.0 mm 0.0 W/m2 CLR
01:49 4.2 °C 1.6 °C 1014.8 hPa Calm     83 % 0.0 mm 0.0 W/m2 CLR
01:54 4.2 °C 1.6 °C 1014.8 hPa Calm     83 % 0.0 mm 0.0 W/m2 CLR
01:59 4.2 °C 1.6 °C 1015.1 hPa Calm     83 % 0.0 mm 0.0 W/m2 CLR
02:04 4.3 °C 1.7 °C 1015.1 hPa Calm     83 % 0.0 mm 0.0 W/m2 CLR
02:09 4.3 °C 1.7 °C 1015.1 hPa Calm     83 % 0.0 mm 0.0 W/m2 CLR
02:14 4.2 °C 1.6 °C 1015.1 hPa Calm     83 % 0.0 mm 0.0 W/m2 CLR
02:19 4.1 °C 1.7 °C 1015.1 hPa Calm     84 % 0.0 mm 0.0 W/m2 CLR
02:24 4.1 °C 1.7 °C 1015.1 hPa Calm     84 % 0.0 mm 0.0 W/m2 CLR
02:29 4.2 °C 1.8 °C 1015.1 hPa Calm     84 % 0.0 mm 0.0 W/m2 CLR
02:34 4.4 °C 2.1 °C 1015.1 hPa Calm     85 % 0.0 mm 0.0 W/m2 CLR
02:39 4.4 °C 2.0 °C 1015.1 hPa Calm     84 % 0.0 mm 0.0 W/m2 CLR
02:44 4.4 °C 1.9 °C 1015.1 hPa Calm     84 % 0.0 mm 0.0 W/m2 CLR
02:45 4.4 °C 1.9 °C 1015.1 hPa Calm     84 % 0.0 mm 0.0 W/m2 CLR
02:50 4.4 °C 1.9 °C 1015.1 hPa Calm     84 % 0.0 mm 0.0 W/m2 CLR
02:55 4.4 °C 1.9 °C 1015.1 hPa Calm     84 % 0.0 mm 0.0 W/m2 CLR
03:00 4.4 °C 1.9 °C 1015.1 hPa Calm     84 % 0.0 mm 0.0 W/m2 CLR
03:05 4.4 °C 2.0 °C 1015.1 hPa Calm     84 % 0.0 mm 0.0 W/m2 CLR
03:10 4.5 °C 2.2 °C 1015.1 hPa Calm     85 % 0.0 mm 0.0 W/m2 CLR
03:15 4.6 °C 2.1 °C 1014.8 hPa Calm     84 % 0.0 mm 0.0 W/m2 CLR
03:20 4.6 °C 2.1 °C 1014.8 hPa Calm     84 % 0.0 mm 0.0 W/m2 CLR
03:25 4.7 °C 2.2 °C 1014.8 hPa Calm     84 % 0.0 mm 0.0 W/m2 CLR
03:30 4.9 °C 2.1 °C 1014.8 hPa Calm     82 % 0.0 mm 0.0 W/m2 CLR
03:35 5.0 °C 2.2 °C 1014.8 hPa Calm     82 % 0.0 mm 0.0 W/m2 CLR
03:40 5.2 °C 2.2 °C 1014.8 hPa Calm     81 % 0.0 mm 0.0 W/m2 CLR
03:45 5.3 °C 2.3 °C 1014.8 hPa Calm     81 % 0.0 mm 0.0 W/m2 CLR
03:50 5.2 °C 2.2 °C 1014.8 hPa Calm     81 % 0.0 mm 0.0 W/m2 CLR
03:55 5.3 °C 2.2 °C 1014.8 hPa Calm     80 % 0.0 mm 0.0 W/m2 CLR
04:00 5.7 °C 2.3 °C 1014.4 hPa Calm     79 % 0.0 mm 0.0 W/m2 CLR
04:05 5.7 °C 2.2 °C 1014.4 hPa Calm     78 % 0.0 mm 0.0 W/m2 CLR
04:10 5.5 °C 2.2 °C 1014.1 hPa Calm     79 % 0.0 mm 0.0 W/m2 CLR
04:15 5.2 °C 2.0 °C 1014.8 hPa Calm     80 % 0.0 mm 0.0 W/m2 CLR
04:20 4.9 °C 1.9 °C 1014.8 hPa Calm     81 % 0.0 mm 0.0 W/m2 CLR
04:25 5.0 °C 2.2 °C 1015.1 hPa Calm     82 % 0.0 mm 0.0 W/m2 CLR
04:30 4.9 °C 2.1 °C 1015.1 hPa Calm     82 % 0.0 mm 0.0 W/m2 CLR
04:35 4.9 °C 2.1 °C 1015.1 hPa Calm     82 % 0.0 mm 0.0 W/m2 CLR
04:40 5.2 °C 2.2 °C 1014.8 hPa Calm     81 % 0.0 mm 0.0 W/m2 CLR
04:45 5.8 °C 2.4 °C 1014.8 hPa Calm     79 % 0.0 mm 0.0 W/m2 CLR
04:50 6.3 °C 2.6 °C 1014.8 hPa Calm     77 % 0.0 mm 0.0 W/m2 CLR
04:55 6.6 °C 2.7 °C 1014.8 hPa Calm     76 % 0.0 mm 0.0 W/m2 CLR
05:00 6.6 °C 2.5 °C 1014.8 hPa Calm     75 % 0.0 mm 0.0 W/m2 CLR
05:05 6.7 °C 2.6 °C 1014.8 hPa Calm     75 % 0.0 mm 0.0 W/m2 CLR
05:10 6.8 °C 2.5 °C 1014.8 hPa Calm     74 % 0.0 mm 0.0 W/m2 CLR
05:15 6.9 °C 2.6 °C 1014.8 hPa Calm     74 % 0.0 mm 0.0 W/m2 CLR
05:20 6.6 °C 2.5 °C 1015.1 hPa Calm     75 % 0.0 mm 0.0 W/m2 CLR
05:25 6.2 °C 2.1 °C 1015.1 hPa Calm     75 % 0.0 mm 0.0 W/m2 CLR
05:30 5.8 °C 2.1 °C 1015.1 hPa Calm     77 % 0.0 mm 0.0 W/m2 CLR
05:35 5.4 °C 1.9 °C 1015.5 hPa Calm     78 % 0.0 mm 0.0 W/m2 CLR
05:40 5.2 °C 1.9 °C 1015.1 hPa Calm     79 % 0.0 mm 0.0 W/m2 CLR
05:45 4.9 °C 1.7 °C 1015.1 hPa Calm     80 % 0.0 mm 0.0 W/m2 CLR
05:50 4.7 °C 1.8 °C 1015.1 hPa Calm     82 % 0.0 mm 0.0 W/m2 CLR
05:55 4.7 °C 1.9 °C 1015.1 hPa Calm     82 % 0.0 mm 0.0 W/m2 CLR
06:00 4.7 °C 1.9 °C 1015.1 hPa Calm     82 % 0.0 mm 0.0 W/m2 CLR
06:05 4.8 °C 1.9 °C 1015.5 hPa Calm     82 % 0.0 mm 0.0 W/m2 CLR
06:10 4.7 °C 1.9 °C 1015.5 hPa Calm     82 % 0.0 mm 0.0 W/m2 CLR
06:15 4.7 °C 2.0 °C 1015.8 hPa Calm     83 % 0.0 mm 0.0 W/m2 CLR
06:20 4.6 °C 1.9 °C 1015.8 hPa Calm     83 % 0.0 mm 0.0 W/m2 CLR
06:25 4.6 °C 2.1 °C 1015.8 hPa Calm     84 % 0.0 mm 0.0 W/m2 CLR
06:30 4.6 °C 2.1 °C 1015.8 hPa Calm     84 % 0.0 mm 0.0 W/m2 CLR
06:35 4.6 °C 2.1 °C 1016.1 hPa Calm     84 % 0.0 mm 0.0 W/m2 CLR
06:40 4.6 °C 2.1 °C 1016.1 hPa Calm     84 % 0.0 mm 0.0 W/m2 CLR
06:45 4.7 °C 2.2 °C 1016.1 hPa Calm     84 % 0.0 mm 0.0 W/m2 CLR
06:50 4.6 °C 2.1 °C 1016.1 hPa Calm     84 % 0.0 mm 0.0 W/m2 CLR
06:55 4.6 °C 2.1 °C 1016.1 hPa Calm     84 % 0.0 mm 0.0 W/m2 CLR
07:00 4.6 °C 2.3 °C 1016.5 hPa Calm     85 % 0.0 mm 0.0 W/m2 CLR
07:05 4.6 °C 2.3 °C 1016.5 hPa Calm     85 % 0.0 mm 0.0 W/m2 CLR
07:06 4.6 °C 2.3 °C 1016.5 hPa Calm     85 % 0.0 mm 0.0 W/m2 CLR
07:11 4.7 °C 2.4 °C 1016.5 hPa Calm     85 % 0.0 mm 0.0 W/m2 CLR
07:16 4.8 °C 2.4 °C 1016.5 hPa Calm     85 % 0.0 mm 0.0 W/m2 CLR
07:21 4.8 °C 2.4 °C 1016.5 hPa Calm     85 % 0.0 mm 0.0 W/m2 OVC
07:26 4.8 °C 2.5 °C 1016.8 hPa Calm     85 % 0.0 mm 5.0 W/m2 OVC
07:31 4.9 °C 2.6 °C 1016.5 hPa Calm     85 % 0.0 mm 12.0 W/m2 OVC
07:36 4.8 °C 2.4 °C 1016.5 hPa Calm     85 % 0.0 mm 16.0 W/m2 BKN
07:41 4.9 °C 2.6 °C 1016.5 hPa Calm     85 % 0.0 mm 21.0 W/m2 BKN
07:46 5.1 °C 2.7 °C 1016.5 hPa Calm     85 % 0.0 mm 32.0 W/m2 BKN
07:51 5.1 °C 2.8 °C 1016.5 hPa Calm     85 % 0.0 mm 49.0 W/m2 BKN
07:56 5.2 °C 2.8 °C 1016.8 hPa Calm     85 % 0.0 mm 63.0 W/m2 SCT
08:01 5.3 °C 2.9 °C 1016.8 hPa Calm     85 % 0.0 mm 56.0 W/m2 SCT
08:06 5.3 °C 3.0 °C 1016.8 hPa Calm     85 % 0.0 mm 65.0 W/m2 SCT
08:11 5.3 °C 2.8 °C 1016.8 hPa Calm     84 % 0.0 mm 63.0 W/m2 SCT
08:16 5.5 °C 3.0 °C 1016.8 hPa Calm     84 % 0.0 mm 63.0 W/m2 SCT
08:21 5.7 °C 3.2 °C 1016.8 hPa Calm     84 % 0.0 mm 76.0 W/m2 FEW
08:26 5.8 °C 3.5 °C 1016.8 hPa Calm     85 % 0.0 mm 105.0 W/m2 CLR
08:31 5.9 °C 3.4 °C 1016.8 hPa Calm     84 % 0.0 mm 118.0 W/m2 CLR
08:36 6.1 °C 3.4 °C 1016.8 hPa Calm     83 % 0.0 mm 128.0 W/m2 CLR
08:41 6.3 °C 3.7 °C 1017.2 hPa Calm     83 % 0.0 mm 139.0 W/m2 CLR
08:46 6.6 °C 3.9 °C 1017.2 hPa Calm     83 % 0.0 mm 142.0 W/m2 CLR
08:51 6.9 °C 4.1 °C 1016.8 hPa Calm     82 % 0.0 mm 149.0 W/m2 CLR
08:56 7.2 °C 4.3 °C 1017.2 hPa Calm     82 % 0.0 mm 185.0 W/m2 CLR
09:01 7.4 °C 4.0 °C 1017.2 hPa Calm     79 % 0.0 mm 144.0 W/m2 CLR
09:06 7.6 °C 3.8 °C 1017.5 hPa Calm     77 % 0.0 mm 141.0 W/m2 CLR
09:11 7.9 °C 4.1 °C 1017.5 hPa Calm     77 % 0.0 mm 169.0 W/m2 CLR
09:17 8.1 °C 4.1 °C 1017.2 hPa Calm     76 % 0.0 mm 199.0 W/m2 CLR
09:22 8.2 °C 3.8 °C 1017.2 hPa Calm     74 % 0.0 mm 174.0 W/m2 CLR
09:26 8.4 °C 4.1 °C 1017.2 hPa Calm     74 % 0.0 mm 172.0 W/m2 CLR
09:32 8.7 °C 4.1 °C 1017.2 hPa Calm     73 % 0.0 mm 207.0 W/m2 CLR
09:37 9.0 °C 4.4 °C 1017.5 hPa Calm     73 % 0.0 mm 257.0 W/m2 CLR
09:42 9.3 °C 4.5 °C 1017.5 hPa Calm     72 % 0.0 mm 281.0 W/m2 CLR
09:47 9.7 °C 4.8 °C 1017.5 hPa Calm     72 % 0.0 mm 357.0 W/m2 CLR
09:52 10.2 °C 5.2 °C 1017.5 hPa Calm     71 % 0.0 mm 376.0 W/m2 CLR
09:57 10.7 °C 5.0 °C 1017.5 hPa Calm     68 % 0.0 mm 248.0 W/m2 CLR
10:02 10.8 °C 5.4 °C 1017.2 hPa Calm     69 % 0.0 mm 371.0 W/m2 CLR
10:07 11.1 °C 5.6 °C 1017.2 hPa Calm     69 % 0.0 mm 394.0 W/m2 CLR
10:12 11.4 °C 4.9 °C 1017.2 hPa Calm     64 % 0.0 mm 425.0 W/m2 CLR
10:17 11.8 °C 5.8 °C 1017.2 hPa Calm     67 % 0.0 mm 350.0 W/m2 CLR
10:22 12.0 °C 5.2 °C 1017.2 hPa NNW 5.6 km/h 5.6 km/h 63 % 0.0 mm 353.0 W/m2 CLR
10:27 12.3 °C 5.0 °C 1016.8 hPa West 5.6 km/h 5.6 km/h 61 % 0.0 mm 422.0 W/m2 CLR
10:32 12.5 °C 4.9 °C 1016.8 hPa SW 16.7 km/h 16.7 km/h 60 % 0.0 mm 490.0 W/m2 CLR
10:37 12.7 °C 5.6 °C 1016.8 hPa WNW 18.5 km/h 18.5 km/h 62 % 0.0 mm 489.0 W/m2 CLR
10:42 12.7 °C 5.4 °C 1017.2 hPa WNW 18.5 km/h 18.5 km/h 61 % 0.0 mm 424.0 W/m2 CLR
10:47 12.8 °C 5.7 °C 1017.5 hPa NW 20.4 km/h 20.4 km/h 62 % 0.0 mm 415.0 W/m2 CLR
10:52 12.8 °C 5.4 °C 1017.2 hPa NW 24.1 km/h 24.1 km/h 61 % 0.0 mm 587.0 W/m2 CLR
10:57 12.9 °C 5.6 °C 1016.8 hPa WNW 19.3 km/h 19.3 km/h 61 % 0.0 mm 376.0 W/m2 CLR
11:02 13.0 °C 5.9 °C 1016.8 hPa WNW 24.1 km/h 24.1 km/h 62 % 0.0 mm 390.0 W/m2 CLR
11:07 13.0 °C 6.1 °C 1016.8 hPa WNW 31.5 km/h 31.5 km/h 63 % 0.0 mm 406.0 W/m2 CLR
11:12 13.1 °C 6.6 °C 1016.8 hPa NW 22.2 km/h 22.2 km/h 65 % 0.0 mm 385.0 W/m2 CLR
11:17 13.1 °C 6.2 °C 1016.8 hPa WNW 31.5 km/h 31.5 km/h 63 % 0.0 mm 587.0 W/m2 CLR
11:22 13.1 °C 6.6 °C 1017.2 hPa WNW 27.8 km/h 27.8 km/h 65 % 0.0 mm 529.0 W/m2 CLR
11:27 13.1 °C 6.4 °C 1017.2 hPa NW 25.9 km/h 25.9 km/h 64 % 0.0 mm 425.0 W/m2 CLR
11:32 13.2 °C 7.0 °C 1017.2 hPa WNW 18.5 km/h 18.5 km/h 66 % 0.0 mm 425.0 W/m2 CLR
11:37 13.3 °C 6.9 °C 1017.2 hPa WNW 29.6 km/h 29.6 km/h 65 % 0.0 mm 276.0 W/m2 CLR
11:42 13.6 °C 6.9 °C 1017.5 hPa NW 16.7 km/h 16.7 km/h 64 % 0.0 mm 638.0 W/m2 CLR
11:47 13.8 °C 7.1 °C 1017.5 hPa NW 35.2 km/h 35.2 km/h 64 % 0.0 mm 506.0 W/m2 CLR
11:52 14.1 °C 7.6 °C 1017.5 hPa WNW 24.1 km/h 24.1 km/h 65 % 0.0 mm 554.0 W/m2 CLR
11:57 14.3 °C 7.8 °C 1017.5 hPa NW 24.1 km/h 24.1 km/h 65 % 0.0 mm 763.0 W/m2 CLR
12:02 14.6 °C 7.8 °C 1017.5 hPa NW 24.1 km/h 24.1 km/h 64 % 0.0 mm 707.0 W/m2 CLR
12:07 14.7 °C 7.7 °C 1017.5 hPa NW 29.6 km/h 29.6 km/h 63 % 0.0 mm 475.0 W/m2 CLR
12:12 14.4 °C 7.4 °C 1017.8 hPa North 27.8 km/h 27.8 km/h 63 % 0.0 mm 591.0 W/m2 CLR
12:17 14.4 °C 7.7 °C 1017.8 hPa NW 27.8 km/h 27.8 km/h 64 % 0.0 mm 670.0 W/m2 CLR
12:22 14.4 °C 7.2 °C 1017.5 hPa NW 27.8 km/h 27.8 km/h 62 % 0.0 mm 392.0 W/m2 CLR
12:28 14.6 °C 8.1 °C 1017.5 hPa NW 14.8 km/h 14.8 km/h 65 % 0.0 mm 404.0 W/m2 CLR
12:33 14.5 °C 7.8 °C 1017.5 hPa North 24.1 km/h 24.1 km/h 64 % 0.0 mm 424.0 W/m2 CLR
12:38 14.4 °C 7.7 °C 1017.5 hPa NNW 18.5 km/h 19.5 km/h 64 % 0.0 mm 404.0 W/m2 CLR
12:43 14.3 °C 7.6 °C 1017.5 hPa NNW 18.5 km/h 18.5 km/h 64 % 0.0 mm 420.0 W/m2 CLR
12:48 14.4 °C 8.2 °C 1017.5 hPa NNW 14.8 km/h 14.8 km/h 66 % 0.0 mm 533.0 W/m2 CLR
12:53 14.4 °C 8.2 °C 1017.8 hPa NW 18.5 km/h 18.5 km/h 66 % 0.0 mm 462.0 W/m2 CLR
12:58 14.6 °C 8.5 °C 1017.8 hPa NNW 14.8 km/h 14.8 km/h 67 % 0.0 mm 701.0 W/m2 CLR
13:03 14.8 °C 8.3 °C 1017.8 hPa NNE 22.2 km/h 22.2 km/h 65 % 0.0 mm 554.0 W/m2 CLR
13:08 14.7 °C 8.2 °C 1017.5 hPa North 18.5 km/h 18.5 km/h 65 % 0.0 mm 478.0 W/m2 CLR
13:13 14.6 °C 8.1 °C 1017.5 hPa NW 25.9 km/h 25.9 km/h 65 % 0.0 mm 489.0 W/m2 CLR
13:18 14.5 °C 7.8 °C 1017.5 hPa NW 18.5 km/h 18.5 km/h 64 % 0.0 mm 469.0 W/m2 CLR
13:23 14.4 °C 7.9 °C 1017.5 hPa NNW 20.9 km/h 20.9 km/h 65 % 0.0 mm 334.0 W/m2 CLR
13:28 14.4 °C 8.1 °C 1017.8 hPa NNW 18.5 km/h 18.5 km/h 66 % 0.0 mm 577.0 W/m2 CLR
13:33 14.6 °C 8.1 °C 1018.2 hPa NNW 24.1 km/h 24.1 km/h 65 % 0.0 mm 761.0 W/m2 CLR
13:38 14.7 °C 8.4 °C 1018.2 hPa North 24.1 km/h 24.1 km/h 66 % 0.0 mm 835.0 W/m2 CLR
13:43 15.0 °C 8.7 °C 1018.2 hPa NNW 20.4 km/h 20.4 km/h 66 % 0.0 mm 485.0 W/m2 CLR
13:48 14.8 °C 8.6 °C 1018.2 hPa NNW 18.5 km/h 18.5 km/h 66 % 0.0 mm 450.0 W/m2 CLR
13:53 14.7 °C 8.4 °C 1018.2 hPa NW 18.5 km/h 18.5 km/h 66 % 0.0 mm 411.0 W/m2 CLR
13:58 14.7 °C 8.4 °C 1018.2 hPa NW 18.5 km/h 18.5 km/h 66 % 0.0 mm 404.0 W/m2 CLR
14:03 14.6 °C 8.3 °C 1018.2 hPa NNW 24.1 km/h 24.1 km/h 66 % 0.0 mm 325.0 W/m2 CLR
14:08 14.5 °C 8.4 °C 1018.2 hPa NW 22.5 km/h 22.5 km/h 67 % 0.0 mm 320.0 W/m2 CLR
14:13 14.3 °C 8.3 °C 1017.8 hPa NW 24.1 km/h 24.1 km/h 67 % 0.0 mm 311.0 W/m2 CLR
14:18 14.4 °C 8.6 °C 1017.8 hPa WNW 22.5 km/h 22.5 km/h 68 % 0.0 mm 380.0 W/m2 CLR
14:23 14.4 °C 8.3 °C 1017.8 hPa NW 22.2 km/h 22.2 km/h 67 % 0.0 mm 279.0 W/m2 CLR
14:28 14.4 °C 8.8 °C 1017.8 hPa West 18.5 km/h 18.5 km/h 69 % 0.0 mm 297.0 W/m2 CLR
14:33 14.4 °C 8.4 °C 1017.8 hPa NNW 24.1 km/h 24.1 km/h 67 % 0.0 mm 304.0 W/m2 CLR
14:38 14.6 °C 8.8 °C 1017.5 hPa West 20.9 km/h 20.9 km/h 68 % 0.0 mm 512.0 W/m2 CLR
14:43 14.8 °C 8.6 °C 1017.2 hPa West 22.2 km/h 22.2 km/h 66 % 0.0 mm 338.0 W/m2 CLR
14:48 15.2 °C 8.9 °C 1016.8 hPa WNW 31.5 km/h 31.5 km/h 66 % 0.0 mm 536.0 W/m2 CLR
14:53 15.6 °C 9.0 °C 1017.2 hPa WNW 33.3 km/h 33.3 km/h 65 % 0.0 mm 691.0 W/m2 CLR
14:58 15.6 °C 8.8 °C 1017.2 hPa NW 33.3 km/h 33.3 km/h 64 % 0.0 mm 406.0 W/m2 CLR
15:03 15.5 °C 8.9 °C 1016.8 hPa WNW 37.0 km/h 37.0 km/h 65 % 0.0 mm 406.0 W/m2 CLR
15:08 15.5 °C 8.7 °C 1017.2 hPa WNW 37.0 km/h 37.0 km/h 64 % 0.0 mm 497.0 W/m2 CLR
15:13 15.3 °C 8.8 °C 1017.2 hPa WNW 35.2 km/h 35.2 km/h 65 % 0.0 mm 508.0 W/m2 CLR
15:18 15.6 °C 9.0 °C 1016.8 hPa NNW 29.6 km/h 29.6 km/h 65 % 0.0 mm 401.0 W/m2 CLR
15:23 15.8 °C 9.0 °C 1017.2 hPa WNW 24.1 km/h 24.1 km/h 64 % 0.0 mm 371.0 W/m2 CLR
15:29 15.8 °C 9.0 °C 1017.2 hPa WNW 27.8 km/h 27.8 km/h 64 % 0.0 mm 504.0 W/m2 CLR
15:34 15.8 °C 9.0 °C 1017.2 hPa NW 31.5 km/h 31.5 km/h 64 % 0.0 mm 471.0 W/m2 CLR
15:39 15.6 °C 9.0 °C 1017.2 hPa WNW 24.1 km/h 24.1 km/h 65 % 0.0 mm 302.0 W/m2 CLR
15:44 15.5 °C 8.9 °C 1017.2 hPa NNW 27.8 km/h 27.8 km/h 65 % 0.0 mm 392.0 W/m2 CLR
15:49 15.5 °C 8.9 °C 1017.2 hPa WNW 27.8 km/h 27.8 km/h 65 % 0.0 mm 427.0 W/m2 CLR
15:54 15.7 °C 9.4 °C 1017.2 hPa NW 22.2 km/h 22.2 km/h 66 % 0.0 mm 563.0 W/m2 CLR
15:59 15.7 °C 9.2 °C 1016.8 hPa WNW 16.7 km/h 16.7 km/h 65 % 0.0 mm 322.0 W/m2 CLR
16:04 15.6 °C 8.8 °C 1016.8 hPa WNW 22.5 km/h 22.5 km/h 64 % 0.0 mm 229.0 W/m2 CLR
16:09 15.6 °C 9.1 °C 1016.8 hPa West 18.5 km/h 18.5 km/h 65 % 0.0 mm 241.0 W/m2 CLR
16:14 15.7 °C 9.2 °C 1016.8 hPa West 18.5 km/h 18.5 km/h 65 % 0.0 mm 255.0 W/m2 CLR
16:19 15.8 °C 8.8 °C 1016.5 hPa WSW 37.0 km/h 37.0 km/h 63 % 0.0 mm 229.0 W/m2 CLR
16:24 15.8 °C 9.1 °C 1016.8 hPa West 27.8 km/h 27.8 km/h 64 % 0.0 mm 209.0 W/m2 CLR
16:29 15.9 °C 9.6 °C 1017.2 hPa NW 20.4 km/h 20.4 km/h 66 % 0.0 mm 155.0 W/m2 CLR
16:34 15.9 °C 9.3 °C 1017.2 hPa NW 18.5 km/h 18.5 km/h 65 % 0.0 mm 169.0 W/m2 CLR
16:39 15.8 °C 9.3 °C 1017.5 hPa NNW 22.2 km/h 22.2 km/h 65 % 0.0 mm 197.0 W/m2 CLR
16:44 15.9 °C 9.1 °C 1017.5 hPa North 18.5 km/h 18.5 km/h 64 % 0.0 mm 246.0 W/m2 CLR
16:49 16.0 °C 9.4 °C 1017.2 hPa NW 20.4 km/h 20.4 km/h 65 % 0.0 mm 343.0 W/m2 CLR
16:54 16.0 °C 9.4 °C 1017.5 hPa NW 14.8 km/h 14.8 km/h 65 % 0.0 mm 162.0 W/m2 CLR
16:59 15.8 °C 9.3 °C 1017.2 hPa NNW 20.4 km/h 20.4 km/h 65 % 0.0 mm 132.0 W/m2 CLR
17:04 15.7 °C 9.4 °C 1017.5 hPa NW 18.5 km/h 18.5 km/h 66 % 0.0 mm 104.0 W/m2 CLR
17:09 15.6 °C 9.3 °C 1017.5 hPa North 20.4 km/h 20.4 km/h 66 % 0.0 mm 91.0 W/m2 CLR
17:14 15.4 °C 9.3 °C 1017.8 hPa North 14.8 km/h 14.8 km/h 67 % 0.0 mm 83.0 W/m2 CLR
17:19 15.2 °C 9.3 °C 1017.8 hPa NNE 14.8 km/h 14.8 km/h 68 % 0.0 mm 74.0 W/m2 FEW
17:24 15.1 °C 9.4 °C 1017.8 hPa NNE 11.1 km/h 11.1 km/h 69 % 0.0 mm 105.0 W/m2 FEW
17:29 14.9 °C 9.3 °C 1017.8 hPa North 11.1 km/h 11.1 km/h 69 % 0.0 mm 146.0 W/m2 CLR
17:34 15.0 °C 9.8 °C 1017.5 hPa Calm     71 % 0.0 mm 153.0 W/m2 CLR
17:39 15.0 °C 9.3 °C 1017.5 hPa NNW 7.4 km/h 7.4 km/h 69 % 0.0 mm 86.0 W/m2 CLR
17:44 14.9 °C 9.3 °C 1017.5 hPa WNW 3.2 km/h 3.2 km/h 69 % 0.0 mm 86.0 W/m2 CLR
17:49 14.9 °C 9.4 °C 1017.8 hPa WNW 6.4 km/h 6.4 km/h 70 % 0.0 mm 105.0 W/m2 CLR
17:54 14.9 °C 9.2 °C 1017.8 hPa WNW 7.4 km/h 7.4 km/h 69 % 0.0 mm 86.0 W/m2 CLR
17:59 14.8 °C 9.2 °C 1017.8 hPa West 7.4 km/h 7.4 km/h 69 % 0.0 mm 74.0 W/m2 FEW
18:04 14.8 °C 9.2 °C 1017.8 hPa WNW 5.6 km/h 5.6 km/h 69 % 0.0 mm 63.0 W/m2 SCT
18:09 14.7 °C 9.1 °C 1017.8 hPa WNW 6.4 km/h 6.4 km/h 69 % 0.0 mm 63.0 W/m2 SCT
18:14 14.6 °C 9.2 °C 1017.8 hPa Calm     70 % 0.0 mm 49.0 W/m2 SCT
18:19 14.6 °C 9.3 °C 1017.8 hPa Calm     71 % 0.0 mm 32.0 W/m2 BKN
18:24 14.4 °C 9.2 °C 1018.2 hPa Calm     71 % 0.0 mm 21.0 W/m2 BKN
18:29 14.4 °C 9.2 °C 1018.5 hPa Calm     71 % 0.0 mm 16.0 W/m2 BKN
18:34 14.3 °C 9.2 °C 1018.5 hPa Calm     71 % 0.0 mm 12.0 W/m2 BKN
18:39 14.3 °C 9.2 °C 1018.5 hPa Calm     71 % 0.0 mm 9.0 W/m2 BKN
18:44 14.3 °C 9.3 °C 1018.5 hPa Calm     72 % 0.0 mm 7.0 W/m2 BKN
18:49 14.2 °C 9.2 °C 1018.5 hPa Calm     72 % 0.0 mm 5.0 W/m2 OVC
18:54 14.1 °C 9.1 °C 1018.8 hPa Calm     72 % 0.0 mm 0.0 W/m2 OVC
18:59 14.0 °C 9.1 °C 1018.8 hPa Calm     72 % 0.0 mm 0.0 W/m2 OVC
19:04 13.8 °C 8.9 °C 1018.8 hPa Calm     72 % 0.0 mm 0.0 W/m2 CLR
19:09 13.7 °C 8.9 °C 1019.2 hPa Calm     73 % 0.0 mm 0.0 W/m2 CLR
19:14 13.6 °C 8.8 °C 1019.2 hPa Calm     73 % 0.0 mm 0.0 W/m2 CLR
19:19 13.5 °C 8.9 °C 1019.2 hPa Calm     74 % 0.0 mm 0.0 W/m2 CLR
19:24 13.4 °C 8.8 °C 1019.2 hPa Calm     74 % 0.0 mm 0.0 W/m2 CLR
19:29 13.3 °C 8.9 °C 1019.2 hPa Calm     75 % 0.0 mm 0.0 W/m2 CLR
19:34 13.2 °C 8.9 °C 1019.5 hPa Calm     75 % 0.0 mm 0.0 W/m2 CLR
19:39 13.2 °C 8.8 °C 1019.5 hPa Calm     75 % 0.0 mm 0.0 W/m2 CLR
19:44 13.2 °C 9.0 °C 1019.5 hPa Calm     76 % 0.0 mm 0.0 W/m2 CLR
19:49 12.9 °C 9.0 °C 1019.5 hPa Calm     77 % 0.0 mm 0.0 W/m2 CLR
19:54 12.7 °C 9.0 °C 1019.5 hPa Calm     78 % 0.0 mm 0.0 W/m2 CLR
19:59 12.6 °C 9.0 °C 1019.9 hPa Calm     79 % 0.0 mm 0.0 W/m2 CLR
20:04 12.4 °C 8.9 °C 1019.9 hPa Calm     79 % 0.0 mm 0.0 W/m2 CLR
20:09 12.4 °C 9.1 °C 1020.2 hPa Calm     80 % 0.0 mm 0.0 W/m2 CLR
20:14 12.4 °C 8.9 °C 1020.2 hPa Calm     79 % 0.0 mm 0.0 W/m2 CLR
20:19 12.6 °C 9.1 °C 1020.2 hPa Calm     79 % 0.0 mm 0.0 W/m2 CLR
20:24 12.7 °C 8.9 °C 1019.9 hPa Calm     78 % 0.0 mm 0.0 W/m2 CLR
20:29 12.6 °C 8.9 °C 1020.2 hPa Calm     78 % 0.0 mm 0.0 W/m2 CLR
20:34 12.3 °C 8.8 °C 1020.2 hPa Calm     79 % 0.0 mm 0.0 W/m2 CLR
20:39 12.2 °C 8.9 °C 1020.2 hPa Calm     80 % 0.0 mm 0.0 W/m2 CLR
20:44 12.0 °C 8.8 °C 1020.2 hPa Calm     81 % 0.0 mm 0.0 W/m2 CLR
20:49 11.8 °C 8.8 °C 1020.2 hPa Calm     82 % 0.0 mm 0.0 W/m2 CLR
20:54 11.8 °C 8.8 °C 1020.2 hPa Calm     82 % 0.0 mm 0.0 W/m2 CLR
20:59 11.8 °C 8.8 °C 1020.2 hPa Calm     82 % 0.0 mm 0.0 W/m2 CLR
21:04 11.8 °C 8.8 °C 1020.5 hPa Calm     82 % 0.0 mm 0.0 W/m2 CLR
21:09 11.8 °C 8.8 °C 1020.2 hPa Calm     82 % 0.0 mm 0.0 W/m2 CLR
21:14 11.9 °C 8.9 °C 1020.5 hPa West 5.6 km/h 5.6 km/h 82 % 0.0 mm 0.0 W/m2 CLR
21:19 12.1 °C 8.9 °C 1020.5 hPa Calm     81 % 0.0 mm 0.0 W/m2 CLR
21:24 12.1 °C 8.9 °C 1020.5 hPa WSW 3.7 km/h   81 % 0.0 mm 0.0 W/m2 CLR
21:30 12.0 °C 8.8 °C 1020.5 hPa Calm     81 % 0.0 mm 0.0 W/m2 CLR
21:35 11.9 °C 8.7 °C 1020.5 hPa Calm     81 % 0.0 mm 0.0 W/m2 CLR
21:40 11.7 °C 8.7 °C 1020.5 hPa Calm     82 % 0.0 mm 0.0 W/m2 CLR
21:45 11.7 °C 8.7 °C 1020.5 hPa Calm     82 % 0.0 mm 0.0 W/m2 CLR
21:50 11.9 °C 8.9 °C 1020.5 hPa Calm     82 % 0.0 mm 0.0 W/m2 CLR
21:55 11.8 °C 8.7 °C 1020.5 hPa Calm     81 % 0.0 mm 0.0 W/m2 CLR
22:00 11.6 °C 8.7 °C 1020.5 hPa Calm     82 % 0.0 mm 0.0 W/m2 CLR
22:05 11.5 °C 8.7 °C 1020.5 hPa Calm     83 % 0.0 mm 0.0 W/m2 CLR
22:10 11.4 °C 8.6 °C 1020.5 hPa Calm     83 % 0.0 mm 0.0 W/m2 CLR
22:15 11.3 °C 8.7 °C 1020.9 hPa Calm     84 % 0.0 mm 0.0 W/m2 CLR
22:20 11.1 °C 8.5 °C 1020.9 hPa Calm     84 % 0.0 mm 0.0 W/m2 CLR
22:25 10.9 °C 8.3 °C 1020.9 hPa Calm     84 % 0.0 mm 0.0 W/m2 CLR
22:30 10.9 °C 8.4 °C 1020.9 hPa Calm     85 % 0.0 mm 0.0 W/m2 CLR
22:35 10.7 °C 8.3 °C 1020.9 hPa Calm     85 % 0.0 mm 0.0 W/m2 CLR
22:40 10.5 °C 8.1 °C 1020.9 hPa Calm     85 % 0.0 mm 0.0 W/m2 CLR
22:45 10.3 °C 8.1 °C 1020.9 hPa Calm     86 % 0.0 mm 0.0 W/m2 CLR
22:50 10.3 °C 8.3 °C 1020.9 hPa Calm     87 % 0.0 mm 0.0 W/m2 CLR
22:55 10.5 °C 8.3 °C 1020.9 hPa Calm     86 % 0.0 mm 0.0 W/m2 CLR
23:00 10.5 °C 8.3 °C 1020.9 hPa Calm     86 % 0.0 mm 0.0 W/m2 CLR
23:05 10.3 °C 8.1 °C 1020.9 hPa Calm     86 % 0.0 mm 0.0 W/m2 CLR
23:10 10.2 °C 8.2 °C 1020.9 hPa Calm     87 % 0.0 mm 0.0 W/m2 CLR
23:15 10.3 °C 8.3 °C 1020.9 hPa Calm     87 % 0.0 mm 0.0 W/m2 CLR
23:20 10.4 °C 8.2 °C 1020.9 hPa Calm     86 % 0.0 mm 0.0 W/m2 CLR
23:25 10.4 °C 8.2 °C 1020.9 hPa Calm     86 % 0.0 mm 0.0 W/m2 CLR
23:30 10.3 °C 7.9 °C 1020.9 hPa Calm     85 % 0.0 mm 0.0 W/m2 CLR
23:35 10.1 °C 7.9 °C 1020.9 hPa Calm     86 % 0.0 mm 0.0 W/m2 CLR
23:40 10.0 °C 7.9 °C 1020.9 hPa Calm     87 % 0.0 mm 0.0 W/m2 CLR
23:45 10.0 °C 7.9 °C 1020.9 hPa Calm     87 % 0.0 mm 0.0 W/m2 CLR
23:50 9.8 °C 7.8 °C 1020.9 hPa Calm     87 % 0.0 mm 0.0 W/m2 CLR
23:55 9.8 °C 7.9 °C 1020.5 hPa Calm     88 % 0.0 mm 0.0 W/m2 CLR
Lo Temps de Massalio
Compliments of Weather Underground - 1.25 mb